createdAt,value
2023-02-16T00:00:02.205Z,4.76
2023-02-16T00:05:02.068Z,4.73
2023-02-16T00:10:01.729Z,4.73
2023-02-16T00:20:01.787Z,4.73
2023-02-16T00:25:01.694Z,4.79
2023-02-16T00:30:02.033Z,5.12
2023-02-16T00:35:01.433Z,5.28
2023-02-16T00:40:01.530Z,5.35
2023-02-16T00:45:01.792Z,5.34
2023-02-16T00:50:01.486Z,5.45
2023-02-16T00:55:01.806Z,5.52
2023-02-16T01:00:02.106Z,5.62
2023-02-16T01:05:01.424Z,5.65
2023-02-16T01:10:02.236Z,5.63
2023-02-16T01:15:01.650Z,5.62
2023-02-16T01:20:01.771Z,5.64
2023-02-16T01:25:01.678Z,5.68
2023-02-16T01:30:01.681Z,5.71
2023-02-16T01:35:01.481Z,5.78
2023-02-16T01:40:02.138Z,5.76
2023-02-16T01:45:01.555Z,5.72
2023-02-16T01:50:03.412Z,5.67
2023-02-16T01:55:02.009Z,5.68
2023-02-16T02:00:02.140Z,5.68
2023-02-16T02:05:01.421Z,5.72
2023-02-16T02:10:01.917Z,5.61
2023-02-16T02:15:01.443Z,5.57
2023-02-16T02:20:01.796Z,5.57
2023-02-16T02:25:02.095Z,5.5
2023-02-16T02:30:01.850Z,5.5
2023-02-16T02:35:02.261Z,5.43
2023-02-16T02:40:02.082Z,5.33
2023-02-16T02:45:01.438Z,5.32
2023-02-16T02:50:01.997Z,5.27
2023-02-16T02:55:01.805Z,5.33
2023-02-16T03:00:02.156Z,5.27
2023-02-16T03:05:01.561Z,5.11
2023-02-16T03:10:01.998Z,4.98
2023-02-16T03:15:01.539Z,4.81
2023-02-16T03:20:02.041Z,4.74
2023-02-16T03:25:01.439Z,4.68
2023-02-16T03:30:01.632Z,4.46
2023-02-16T03:35:01.941Z,4.29
2023-02-16T03:40:02.037Z,4.1
2023-02-16T03:45:01.942Z,4.05
2023-02-16T03:50:02.009Z,4.01
2023-02-16T03:55:01.680Z,3.94
2023-02-16T04:00:01.720Z,3.89
2023-02-16T04:05:01.616Z,3.82
2023-02-16T04:10:01.902Z,3.84
2023-02-16T04:15:01.923Z,4
2023-02-16T04:20:01.964Z,4.07
2023-02-16T04:25:01.887Z,4.2
2023-02-16T04:30:02.000Z,4.28
2023-02-16T04:35:01.554Z,4.36
2023-02-16T04:40:02.189Z,4.41
2023-02-16T04:45:01.497Z,4.36
2023-02-16T04:50:02.067Z,4.23
2023-02-16T04:55:02.320Z,4.05
2023-02-16T05:00:01.725Z,3.95
2023-02-16T05:05:01.613Z,4.05
2023-02-16T05:10:01.777Z,4.03
2023-02-16T05:15:01.779Z,4.07
2023-02-16T05:20:02.290Z,4.03
2023-02-16T05:25:01.470Z,4.07
2023-02-16T05:30:01.737Z,4.27
2023-02-16T05:35:02.160Z,4.24
2023-02-16T05:40:01.483Z,4.68
2023-02-16T05:45:01.854Z,4.79
2023-02-16T05:50:01.812Z,4.42
2023-02-16T05:55:01.803Z,4.16
2023-02-16T06:00:01.454Z,3.88
2023-02-16T06:05:02.040Z,3.8
2023-02-16T06:10:01.777Z,3.69
2023-02-16T06:15:02.271Z,3.65
2023-02-16T06:20:01.518Z,3.74
2023-02-16T06:25:01.744Z,3.76
2023-02-16T06:30:02.049Z,3.78
2023-02-16T06:35:02.215Z,3.83
2023-02-16T06:40:02.085Z,3.9
2023-02-16T06:45:01.661Z,4.01
2023-02-16T06:50:02.193Z,4.04
2023-02-16T06:55:02.054Z,3.92
2023-02-16T07:00:02.063Z,3.75
2023-02-16T07:05:12.213Z,3.59
2023-02-16T07:10:02.056Z,3.43
2023-02-16T07:15:01.891Z,3.21
2023-02-16T07:20:01.451Z,3.15
2023-02-16T07:25:01.750Z,3.26
2023-02-16T07:30:11.516Z,3.53
2023-02-16T07:35:01.652Z,3.83
2023-02-16T07:40:01.591Z,4.12
2023-02-16T07:45:11.962Z,4.59
2023-02-16T07:50:02.116Z,4.88
2023-02-16T07:55:11.888Z,5.06
2023-02-16T08:00:01.622Z,5.07
2023-02-16T08:05:01.600Z,5.1
2023-02-16T08:10:01.643Z,5.22
2023-02-16T08:15:01.346Z,5.43
2023-02-16T08:20:01.821Z,5.57
2023-02-16T08:25:01.675Z,5.68
2023-02-16T08:30:01.716Z,5.71
2023-02-16T08:35:01.967Z,5.87
2023-02-16T08:40:11.965Z,6
2023-02-16T08:45:01.850Z,6.02
2023-02-16T08:50:02.156Z,6.07
2023-02-16T08:55:01.823Z,6.08
2023-02-16T09:00:01.914Z,6.06
2023-02-16T09:05:16.509Z,6.12
2023-02-16T09:10:01.591Z,6.28
2023-02-16T09:15:01.481Z,6.39
2023-02-16T09:20:01.699Z,6.52
2023-02-16T09:25:01.749Z,6.65
2023-02-16T09:30:01.847Z,6.79
2023-02-16T09:35:01.810Z,6.79
2023-02-16T09:40:01.868Z,6.68
2023-02-16T09:45:02.213Z,6.85
2023-02-16T09:50:01.848Z,7.47
2023-02-16T09:55:16.837Z,7.92
2023-02-16T10:00:01.681Z,8.3
2023-02-16T10:05:07.187Z,8.71
2023-02-16T10:10:01.835Z,8.98
2023-02-16T10:15:01.770Z,9.26
2023-02-16T10:20:01.791Z,9.3
2023-02-16T10:25:01.905Z,9.22
2023-02-16T10:30:01.802Z,9.32
2023-02-16T10:35:01.960Z,9.44
2023-02-16T10:40:06.828Z,9.59
2023-02-16T10:45:02.059Z,9.56
2023-02-16T10:50:02.124Z,9.63
2023-02-16T10:55:02.170Z,9.67
2023-02-16T11:00:16.573Z,9.67
2023-02-16T11:05:01.427Z,9.76
2023-02-16T11:10:02.001Z,9.89
2023-02-16T11:15:02.162Z,9.93
2023-02-16T11:20:02.368Z,10.05
2023-02-16T11:25:16.754Z,10.18
2023-02-16T11:30:02.155Z,10.29
2023-02-16T11:35:02.196Z,10.37
2023-02-16T11:40:01.272Z,10.35
2023-02-16T11:45:01.397Z,10.35
2023-02-16T11:50:01.460Z,10.38
2023-02-16T11:55:01.639Z,10.44
2023-02-16T12:00:01.727Z,10.5
